Time;durP1;ratioP1;P1;durP2;ratioP2;P2;SDS_P1;SDS_P2;PMS_P1;PMS_P2;Temp;Humidity;BMP_temperature;BMP_pressure;BME280_temperature;BME280_humidity;BME280_pressure;Samples;Min_cycle;Max_cycle;Signal;HPM_P1;HPM_P2
2022/02/25 00:01:59;;;;;;;;;0.00;0.00;;;;;9.69;48.23;101927.72;4940517;28;45535;-67
2022/02/25 00:04:25;;;;;;;;;0.00;0.00;;;;;9.63;49.06;101937.53;4937491;28;45390;-67
2022/02/25 00:06:50;;;;;;;;;2.50;1.25;;;;;9.61;48.84;101936.69;4924238;28;45577;-68
2022/02/25 00:09:16;;;;;;;;;0.00;0.00;;;;;9.63;48.61;101940.19;4937108;28;46022;-67
2022/02/25 00:11:41;;;;;;;;;0.00;0.00;;;;;9.63;49.08;101952.66;4934556;28;45302;-68
2022/02/25 00:14:06;;;;;;;;;1.00;0.00;;;;;9.63;49.04;101947.31;4925479;28;45373;-67
2022/02/25 00:16:32;;;;;;;;;3.75;1.00;;;;;9.62;48.73;101956.22;4934776;28;45577;-67
2022/02/25 00:18:58;;;;;;;;;3.25;1.00;;;;;9.59;49.29;101957.13;4930376;28;45381;-67
2022/02/25 00:21:23;;;;;;;;;4.00;1.50;;;;;9.62;48.81;101958.88;4943472;28;45608;-67
2022/02/25 00:23:49;;;;;;;;;0.25;0.00;;;;;9.60;49.25;101958.00;4932092;28;45364;-67
2022/02/25 00:26:14;;;;;;;;;1.00;0.25;;;;;9.65;49.14;101956.19;4937488;28;45325;-67
2022/02/25 00:28:39;;;;;;;;;1.75;1.00;;;;;9.66;48.84;101959.75;4926246;28;46091;-67
2022/02/25 00:31:05;;;;;;;;;1.00;0.00;;;;;9.58;49.26;101958.03;4936544;28;45294;-68
2022/02/25 00:33:30;;;;;;;;;0.75;0.00;;;;;9.58;49.13;101959.81;4924340;28;45317;-67
2022/02/25 00:35:55;;;;;;;;;3.25;1.00;;;;;9.63;48.82;101972.19;4936657;28;45214;-67
2022/02/25 00:38:21;;;;;;;;;0.00;0.00;;;;;9.63;49.18;101974.00;4948003;28;45333;-67
2022/02/25 00:40:47;;;;;;;;;2.00;0.50;;;;;9.61;49.10;101983.78;4940577;28;45234;-67
2022/02/25 00:43:12;;;;;;;;;1.00;1.00;;;;;9.57;49.33;101984.69;4934055;28;45243;-67
2022/02/25 00:45:38;;;;;;;;;0.25;0.00;;;;;9.57;49.12;101982.03;4939537;28;45486;-67
2022/02/25 00:48:04;;;;;;;;;2.00;1.00;;;;;9.61;49.20;101997.13;4923978;28;46343;-67
2022/02/25 00:50:30;;;;;;;;;1.25;1.00;;;;;9.57;49.47;101985.59;4937060;28;45256;-67
2022/02/25 00:52:56;;;;;;;;;1.00;1.00;;;;;9.62;49.10;101993.53;4941314;28;45562;-67
2022/02/25 00:55:22;;;;;;;;;1.25;0.00;;;;;9.57;48.98;101995.34;4928638;28;45454;-67
2022/02/25 00:57:49;;;;;;;;;3.00;0.50;;;;;9.58;49.17;101992.69;4923901;28;45258;-67
2022/02/25 01:00:17;;;;;;;;;3.00;2.00;;;;;9.57;49.02;102004.25;4934725;28;45413;-67
2022/02/25 01:02:43;;;;;;;;;1.50;1.00;;;;;9.56;48.96;102002.47;4937507;28;45303;-67
2022/02/25 01:05:09;;;;;;;;;0.00;0.00;;;;;9.58;49.36;102007.81;4923882;28;45160;-67
2022/02/25 01:07:36;;;;;;;;;0.00;0.00;;;;;9.57;49.13;102009.59;4925989;28;46406;-67
2022/02/25 01:10:03;;;;;;;;;2.50;1.00;;;;;9.53;49.37;102004.28;4939460;28;45668;-67
2022/02/25 01:12:28;;;;;;;;;0.00;0.00;;;;;9.53;49.59;102004.28;4929913;28;45503;-67
2022/02/25 01:14:53;;;;;;;;;1.50;0.75;;;;;9.52;49.70;102008.75;4932857;28;45571;-67
2022/02/25 01:17:19;;;;;;;;;0.50;0.50;;;;;9.49;49.25;102005.19;4939435;28;46558;-67
2022/02/25 01:19:44;;;;;;;;;2.75;1.75;;;;;9.49;49.40;102007.84;4935275;28;45289;-67
2022/02/25 01:22:09;;;;;;;;;1.00;1.00;;;;;9.51;49.55;102020.28;4950366;28;45232;-67
2022/02/25 01:24:35;;;;;;;;;1.00;0.00;;;;;9.44;49.85;102011.47;4939591;28;45482;-67
2022/02/25 01:27:00;;;;;;;;;2.00;1.00;;;;;9.48;49.39;102028.31;4941024;28;46272;-67
2022/02/25 01:29:25;;;;;;;;;2.00;0.00;;;;;9.49;49.55;102018.53;4940565;28;45376;-67
2022/02/25 01:31:51;;;;;;;;;1.00;1.00;;;;;9.48;49.50;102025.63;4930946;28;45289;-67
2022/02/25 01:34:17;;;;;;;;;3.00;1.00;;;;;9.45;49.52;102018.56;4941167;28;45464;-67
2022/02/25 01:36:43;;;;;;;;;0.75;0.75;;;;;9.48;49.42;102025.63;4939951;28;45277;-67
2022/02/25 01:39:08;;;;;;;;;2.25;1.00;;;;;9.43;49.78;102022.13;4935611;28;45288;-67
2022/02/25 01:41:34;;;;;;;;;1.00;0.00;;;;;9.43;50.00;102028.34;4930708;28;45721;-67
2022/02/25 01:44:20;;;;;;;;;0.00;0.00;;;;;9.47;49.40;102026.53;4939752;28;45337;-67
2022/02/25 01:46:52;;;;;;;;;1.50;0.00;;;;;9.48;49.68;102038.09;4922958;28;46228;-67
2022/02/25 01:49:18;;;;;;;;;0.00;0.00;;;;;9.43;49.40;102032.78;4941556;28;45226;-67
2022/02/25 01:51:44;;;;;;;;;0.00;0.00;;;;;9.44;49.49;102045.22;4941576;28;45405;-67
2022/02/25 01:54:10;;;;;;;;;1.25;1.25;;;;;9.41;49.89;102040.78;4928829;28;45318;-67
2022/02/25 01:56:38;;;;;;;;;0.00;0.00;;;;;9.38;49.82;102037.28;4942174;28;45325;-67
2022/02/25 01:59:03;;;;;;;;;1.25;1.00;;;;;9.39;49.65;102031.06;4939419;28;46944;-67
2022/02/25 02:01:29;;;;;;;;;1.25;1.00;;;;;9.40;50.23;102028.34;4934390;28;45331;-67
2022/02/25 02:03:57;;;;;;;;;0.25;0.25;;;;;9.42;49.71;102031.00;4924439;28;45366;-67
2022/02/25 02:06:23;;;;;;;;;0.00;0.00;;;;;9.32;49.74;102024.88;4933629;28;46599;-67
2022/02/25 02:08:48;;;;;;;;;0.00;0.00;;;;;9.40;49.48;102030.13;4937416;28;45528;-67
2022/02/25 02:11:26;;;;;;;;;1.25;1.00;;;;;9.38;49.31;102037.28;4939034;28;45242;-67
2022/02/25 02:13:51;;;;;;;;;0.00;0.00;;;;;9.36;49.75;102039.06;4932657;28;45520;-67
2022/02/25 02:16:16;;;;;;;;;0.25;0.25;;;;;9.36;49.69;102033.72;4923828;28;46103;-67
2022/02/25 02:18:42;;;;;;;;;1.00;1.00;;;;;9.31;50.15;102031.09;4933712;28;45345;-67
2022/02/25 02:21:07;;;;;;;;;2.75;1.75;;;;;9.32;49.68;102030.22;4929047;28;45550;-67
2022/02/25 02:23:32;;;;;;;;;0.00;0.00;;;;;9.28;49.68;102024.00;4931108;28;45280;-67
2022/02/25 02:25:58;;;;;;;;;2.00;0.00;;;;;9.28;50.05;102024.00;4940562;28;46067;-67
2022/02/25 02:28:27;;;;;;;;;1.75;0.50;;;;;9.25;49.87;102021.38;4938842;28;45315;-67
2022/02/25 02:30:53;;;;;;;;;1.00;0.00;;;;;9.24;50.17;102024.91;4939414;28;45505;-67
2022/02/25 02:33:19;;;;;;;;;1.00;0.00;;;;;9.21;49.93;102026.72;4939108;28;45417;-67
2022/02/25 02:35:45;;;;;;;;;2.00;0.25;;;;;9.21;50.05;102032.94;4938853;28;45430;-67
2022/02/25 02:38:11;;;;;;;;;1.25;0.25;;;;;9.17;50.30;102020.53;4931182;28;45185;-67
2022/02/25 02:40:36;;;;;;;;;2.00;2.00;;;;;9.19;50.21;102031.19;4941811;28;45263;-67
2022/02/25 02:43:02;;;;;;;;;2.75;1.25;;;;;9.20;50.24;102039.13;4923962;28;45488;-67
2022/02/25 02:45:28;;;;;;;;;0.75;0.00;;;;;9.17;50.18;102031.19;4933101;28;46490;-67
2022/02/25 02:47:53;;;;;;;;;0.75;0.00;;;;;9.14;50.49;102024.97;4925100;28;47374;-67
2022/02/25 02:50:18;;;;;;;;;3.00;0.00;;;;;9.14;50.47;102025.88;4938987;28;45329;-67
2022/02/25 02:52:44;;;;;;;;;1.00;0.00;;;;;9.13;50.49;102029.41;4937176;28;45449;-67
2022/02/25 02:55:10;;;;;;;;;0.00;0.00;;;;;9.11;50.40;102028.56;4921987;28;46251;-67
2022/02/25 02:57:35;;;;;;;;;0.00;0.00;;;;;9.12;50.65;102025.00;4935693;28;45294;-67
2022/02/25 03:00:01;;;;;;;;;0.75;0.00;;;;;9.05;50.57;102017.91;4941281;28;45561;-67
2022/02/25 03:02:26;;;;;;;;;0.00;0.00;;;;;9.07;50.85;102027.69;4926662;28;45307;-67
2022/02/25 03:04:51;;;;;;;;;4.50;1.00;;;;;9.07;50.82;102025.03;4928600;28;45265;-67
2022/02/25 03:07:17;;;;;;;;;0.50;0.00;;;;;9.04;50.97;102025.03;4936546;28;45305;-67
2022/02/25 03:09:42;;;;;;;;;0.75;0.00;;;;;9.05;50.76;102024.16;4934733;28;45171;-67
2022/02/25 03:12:08;;;;;;;;;0.50;0.50;;;;;9.03;50.83;102031.25;4932918;28;45441;-67
2022/02/25 03:14:34;;;;;;;;;1.75;0.50;;;;;9.03;50.68;102030.38;4923055;28;46911;-67
2022/02/25 03:17:00;;;;;;;;;1.00;0.25;;;;;8.96;50.76;102015.31;4922048;28;45467;-67
2022/02/25 03:19:25;;;;;;;;;3.00;0.75;;;;;9.02;50.98;102033.91;4941934;28;45294;-67
2022/02/25 03:21:50;;;;;;;;;1.00;0.25;;;;;9.02;50.85;102048.13;4950350;28;45211;-67
2022/02/25 03:24:15;;;;;;;;;0.00;0.00;;;;;8.99;51.45;102026.84;4929473;28;45336;-67
2022/02/25 03:26:41;;;;;;;;;0.75;0.75;;;;;8.98;51.12;102038.38;4931432;28;45405;-67
2022/02/25 03:29:06;;;;;;;;;1.50;0.00;;;;;9.01;51.07;102038.38;4940357;28;45327;-67
2022/02/25 03:31:31;;;;;;;;;1.00;1.00;;;;;9.03;50.96;102039.22;4937079;28;45249;-67
2022/02/25 03:33:57;;;;;;;;;2.00;0.00;;;;;8.96;51.05;102028.63;4941082;28;45430;-67
2022/02/25 03:36:22;;;;;;;;;7.00;0.00;;;;;9.02;51.22;102041.91;4921751;28;45396;-67
2022/02/25 03:38:48;;;;;;;;;0.75;0.00;;;;;9.03;51.22;102041.91;4938084;28;45682;-67
2022/02/25 03:41:13;;;;;;;;;3.00;0.75;;;;;9.01;50.98;102048.16;4937481;28;45578;-67
2022/02/25 03:43:38;;;;;;;;;1.75;0.25;;;;;8.96;51.11;102045.50;4940787;28;46759;-67
2022/02/25 03:46:04;;;;;;;;;0.00;0.00;;;;;9.01;51.36;102049.03;4931501;28;45230;-67
2022/02/25 03:48:29;;;;;;;;;0.00;0.00;;;;;9.02;51.18;102044.56;4943074;28;45464;-67
2022/02/25 03:50:55;;;;;;;;;0.00;0.00;;;;;9.01;51.18;102045.47;4940880;28;45274;-68
2022/02/25 03:53:21;;;;;;;;;3.00;0.50;;;;;9.00;51.24;102051.69;4943899;28;45678;-67
2022/02/25 03:55:46;;;;;;;;;0.00;0.00;;;;;9.01;51.20;102048.16;4938523;28;45316;-67
2022/02/25 03:58:11;;;;;;;;;0.00;0.00;;;;;8.97;51.17;102043.72;4932594;28;45338;-67
2022/02/25 04:00:37;;;;;;;;;0.50;0.50;;;;;8.96;51.08;102060.59;4942746;28;45262;-67
2022/02/25 04:03:03;;;;;;;;;0.50;0.50;;;;;8.96;51.40;102063.25;4942348;28;45221;-67
2022/02/25 04:05:28;;;;;;;;;1.00;1.00;;;;;8.96;51.07;102066.81;4932359;28;45206;-67
2022/02/25 04:07:53;;;;;;;;;0.00;0.00;;;;;8.93;51.25;102071.25;4929555;28;45287;-67
2022/02/25 04:10:19;;;;;;;;;1.00;1.00;;;;;8.94;51.08;102059.69;4932309;28;45264;-67
2022/02/25 04:12:44;;;;;;;;;0.00;0.00;;;;;8.95;51.58;102059.69;4941083;28;46210;-68
2022/02/25 04:15:10;;;;;;;;;0.50;0.50;;;;;8.97;51.37;102073.00;4943000;28;45219;-67
2022/02/25 04:17:36;;;;;;;;;0.75;0.00;;;;;8.95;51.30;102069.47;4930754;28;45159;-67
2022/02/25 04:20:02;;;;;;;;;1.00;0.00;;;;;8.96;51.29;102072.13;4943401;28;45480;-68
2022/02/25 04:22:28;;;;;;;;;1.25;0.50;;;;;8.96;51.23;102072.13;4937278;28;45256;-67
2022/02/25 04:24:53;;;;;;;;;0.00;0.00;;;;;8.95;51.56;102078.34;4934032;28;45337;-68
2022/02/25 04:27:18;;;;;;;;;1.00;0.00;;;;;8.92;51.56;102083.69;4934691;28;45421;-67
2022/02/25 04:29:44;;;;;;;;;0.00;0.00;;;;;8.86;51.70;102076.59;4938186;28;45487;-67
2022/02/25 04:32:10;;;;;;;;;0.00;0.00;;;;;8.86;51.51;102081.06;4943078;28;45995;-67
2022/02/25 04:34:35;;;;;;;;;0.00;0.00;;;;;8.85;51.54;102089.91;4930560;28;45622;-67
2022/02/25 04:37:01;;;;;;;;;0.00;0.00;;;;;8.80;51.64;102089.94;4943548;28;45312;-68
2022/02/25 04:39:26;;;;;;;;;1.25;1.00;;;;;8.81;52.07;102093.50;4929953;28;45504;-68
2022/02/25 04:41:52;;;;;;;;;0.75;0.00;;;;;8.80;51.75;102089.06;4936461;28;46223;-67
2022/02/25 04:44:17;;;;;;;;;1.50;0.25;;;;;8.85;51.61;102098.81;4924114;28;45140;-67
2022/02/25 04:46:42;;;;;;;;;0.00;0.00;;;;;8.84;51.57;102102.34;4949140;28;45614;-68
2022/02/25 04:49:08;;;;;;;;;0.00;0.00;;;;;8.81;52.03;102105.03;4942764;28;45260;-67
2022/02/25 04:51:33;;;;;;;;;0.00;0.00;;;;;8.83;51.90;102103.22;4941111;28;46289;-68
2022/02/25 04:53:59;;;;;;;;;0.00;0.00;;;;;8.83;52.06;102097.91;4932434;28;45364;-67
2022/02/25 04:56:24;;;;;;;;;1.50;0.00;;;;;8.83;52.09;102105.91;4936685;28;45263;-67
2022/02/25 04:58:51;;;;;;;;;0.00;0.00;;;;;8.81;52.29;102105.03;4933429;28;45381;-67
2022/02/25 05:01:17;;;;;;;;;0.75;0.00;;;;;8.81;51.96;102101.47;4939766;28;46114;-67
2022/02/25 05:03:42;;;;;;;;;1.00;0.00;;;;;8.82;52.25;102105.91;4941562;28;45436;-67
2022/02/25 05:06:08;;;;;;;;;0.00;0.00;;;;;8.75;52.55;102102.38;4944480;28;45412;-67
2022/02/25 05:08:33;;;;;;;;;1.00;0.00;;;;;8.79;52.55;102106.81;4945882;28;45368;-68
2022/02/25 05:10:59;;;;;;;;;1.00;1.00;;;;;8.77;52.42;102115.69;4937436;28;46082;-67
2022/02/25 05:13:24;;;;;;;;;1.00;0.00;;;;;8.68;52.82;102089.97;4940973;28;45433;-68
2022/02/25 05:21:17;;;;;;;;;0.00;0.00;;;;;8.69;52.82;102111.28;4937582;28;45391;-67
2022/02/25 05:23:43;;;;;;;;;0.00;0.00;;;;;8.75;52.91;102126.34;4939250;28;45335;-67
2022/02/25 05:26:08;;;;;;;;;1.00;1.00;;;;;8.75;52.49;102129.00;4940847;28;45310;-67
2022/02/25 05:28:34;;;;;;;;;1.00;1.00;;;;;8.77;52.66;102118.34;4929379;28;45619;-67
2022/02/25 05:30:59;;;;;;;;;1.00;1.00;;;;;8.77;52.69;102129.91;4937342;28;46101;-67
2022/02/25 05:33:24;;;;;;;;;0.00;0.00;;;;;8.76;52.62;102143.22;4937012;28;45225;-67
2022/02/25 05:35:50;;;;;;;;;1.50;0.00;;;;;8.76;52.48;102132.56;4927406;28;45353;-67
2022/02/25 05:38:15;;;;;;;;;0.75;0.75;;;;;8.77;52.66;102135.22;4941008;28;45570;-67
2022/02/25 05:40:41;;;;;;;;;0.00;0.00;;;;;8.77;52.78;102124.56;4939157;28;46193;-67
2022/02/25 05:43:06;;;;;;;;;1.00;1.00;;;;;8.79;52.76;102133.44;4941737;28;45344;-67
2022/02/25 05:45:32;;;;;;;;;0.00;0.00;;;;;8.75;52.70;102131.66;4932660;28;45422;-67
2022/02/25 05:47:57;;;;;;;;;1.00;0.75;;;;;8.70;53.14;102133.44;4939371;28;45238;-67
2022/02/25 05:50:23;;;;;;;;;1.25;0.00;;;;;8.69;53.19;102134.34;4940840;28;45301;-67
2022/02/25 05:52:50;;;;;;;;;1.00;0.00;;;;;8.70;52.90;102144.09;4933897;28;45763;-67
2022/02/25 05:55:18;;;;;;;;;0.25;0.25;;;;;8.64;52.98;102134.34;4934704;28;45437;-67
2022/02/25 05:57:44;;;;;;;;;0.00;0.00;;;;;8.75;53.04;102150.28;4936286;28;45523;-67
2022/02/25 06:00:12;;;;;;;;;0.00;0.00;;;;;8.77;52.89;102156.53;4936520;28;46339;-67
2022/02/25 06:02:38;;;;;;;;;1.50;0.00;;;;;8.76;52.93;102154.75;4922499;28;45358;-67
2022/02/25 06:05:04;;;;;;;;;0.75;0.00;;;;;8.77;53.05;102156.53;4928219;28;45235;-67
2022/02/25 06:07:29;;;;;;;;;1.75;0.00;;;;;8.82;52.89;102160.06;4930197;28;45563;-67
2022/02/25 06:09:55;;;;;;;;;0.25;0.00;;;;;8.80;53.15;102169.81;4938554;28;45378;-67
2022/02/25 06:12:20;;;;;;;;;2.00;1.00;;;;;8.85;53.09;102177.78;4941741;28;45264;-67
2022/02/25 06:14:46;;;;;;;;;4.00;0.25;;;;;8.86;53.39;102168.94;4936912;28;45709;-67
2022/02/25 06:17:11;;;;;;;;;2.00;0.00;;;;;8.84;52.89;102166.25;4940771;28;45473;-67
2022/02/25 06:19:36;;;;;;;;;0.00;0.00;;;;;8.75;53.40;102166.25;4938120;28;45337;-67
2022/02/25 06:22:02;;;;;;;;;0.50;0.00;;;;;8.84;53.74;102184.03;4935189;28;45309;-67
2022/02/25 06:24:27;;;;;;;;;1.00;0.50;;;;;8.80;53.09;102175.13;4931113;28;45444;-67
2022/02/25 06:26:53;;;;;;;;;2.75;1.00;;;;;8.80;53.30;102182.25;4934373;28;45493;-67
2022/02/25 06:29:18;;;;;;;;;2.25;0.50;;;;;8.84;53.51;102184.91;4940886;28;45485;-67
2022/02/25 06:31:44;;;;;;;;;2.00;0.00;;;;;8.85;53.10;102192.00;4928943;28;45448;-67
2022/02/25 06:34:09;;;;;;;;;3.25;0.00;;;;;8.78;53.06;102184.03;4922657;28;45368;-67
2022/02/25 06:36:35;;;;;;;;;1.00;1.00;;;;;8.84;53.32;102200.88;4926022;28;45555;-67
2022/02/25 06:39:00;;;;;;;;;0.00;0.00;;;;;8.83;53.15;102204.41;4928601;28;46069;-67
2022/02/25 06:41:26;;;;;;;;;0.75;0.25;;;;;8.89;53.04;102206.19;4936426;28;45338;-67
2022/02/25 06:43:51;;;;;;;;;0.00;0.00;;;;;8.89;53.25;102208.88;4935753;28;45448;-67
2022/02/25 06:46:17;;;;;;;;;0.25;0.00;;;;;8.91;53.16;102209.75;4930015;28;45489;-67
2022/02/25 06:48:42;;;;;;;;;1.00;1.00;;;;;8.94;52.94;102219.47;4929855;28;45317;-67
2022/02/25 06:51:08;;;;;;;;;0.00;0.00;;;;;8.94;52.90;102215.06;4940627;28;45486;-67
2022/02/25 06:53:36;;;;;;;;;0.00;0.00;;;;;8.90;52.96;102214.19;4936585;28;45504;-67
2022/02/25 06:56:01;;;;;;;;;0.00;0.00;;;;;8.90;53.30;102214.19;4931370;28;45601;-67
2022/02/25 06:58:26;;;;;;;;;1.00;0.00;;;;;8.92;53.19;102221.28;4931397;28;45362;-69
2022/02/25 07:00:52;;;;;;;;;1.50;0.75;;;;;8.89;53.19;102217.72;4930028;28;45729;-71
2022/02/25 07:03:17;;;;;;;;;0.50;0.00;;;;;8.92;53.04;102211.53;4935303;28;45444;-70
2022/02/25 07:05:43;;;;;;;;;0.25;0.25;;;;;8.94;53.23;102217.72;4931450;28;45480;-70
2022/02/25 07:08:09;;;;;;;;;0.75;0.50;;;;;8.95;53.08;102234.59;4938208;28;47166;-71
2022/02/25 07:10:35;;;;;;;;;0.00;0.00;;;;;8.88;53.06;102223.06;4933234;28;45273;-71
2022/02/25 07:13:03;;;;;;;;;2.50;1.00;;;;;8.95;53.06;102235.47;4935124;28;45296;-67
2022/02/25 07:15:29;;;;;;;;;1.25;0.25;;;;;8.97;53.08;102240.78;4933045;28;45508;-67
2022/02/25 07:17:56;;;;;;;;;0.00;0.00;;;;;8.94;53.13;102235.47;4936132;28;45243;-67
2022/02/25 07:20:22;;;;;;;;;0.75;0.00;;;;;8.95;52.95;102239.91;4939360;28;45301;-67
2022/02/25 07:22:47;;;;;;;;;0.75;0.75;;;;;8.94;52.91;102230.13;4930254;28;45322;-67
2022/02/25 07:25:14;;;;;;;;;3.50;0.50;;;;;8.94;53.25;102232.81;4945778;28;45655;-66
2022/02/25 07:27:39;;;;;;;;;3.00;2.00;;;;;8.95;53.06;102237.25;4947429;28;45425;-66
2022/02/25 07:30:05;;;;;;;;;2.50;0.00;;;;;8.93;53.42;102234.59;4932743;28;45279;-66
2022/02/25 07:32:31;;;;;;;;;4.25;1.00;;;;;8.94;53.18;102236.38;4933614;28;45411;-67
2022/02/25 07:34:56;;;;;;;;;2.25;1.00;;;;;8.92;53.16;102238.16;4932778;28;45635;-67
2022/02/25 07:37:22;;;;;;;;;1.00;1.00;;;;;8.89;53.19;102225.72;4936187;28;46655;-67
2022/02/25 07:39:47;;;;;;;;;3.75;2.00;;;;;8.93;53.22;102228.38;4936131;28;45214;-67
2022/02/25 07:42:13;;;;;;;;;3.25;0.00;;;;;8.95;53.43;102223.94;4932889;28;45544;-68
2022/02/25 07:44:39;;;;;;;;;1.00;0.75;;;;;8.95;53.45;102223.94;4943172;28;45300;-68
2022/02/25 07:47:05;;;;;;;;;1.00;1.00;;;;;8.97;53.40;102224.81;4943650;28;46905;-67
2022/02/25 07:49:31;;;;;;;;;0.75;0.75;;;;;8.95;53.49;102229.25;4931953;28;45222;-67
2022/02/25 07:51:56;;;;;;;;;1.25;1.00;;;;;8.98;53.45;102237.25;4943707;28;45529;-67
2022/02/25 07:54:22;;;;;;;;;2.00;0.50;;;;;8.98;53.17;102238.13;4924330;28;45500;-68
2022/02/25 07:56:48;;;;;;;;;0.25;0.25;;;;;8.98;53.63;102239.91;4940484;28;46177;-66
2022/02/25 07:59:13;;;;;;;;;0.00;0.00;;;;;9.00;53.04;102246.13;4938387;28;45456;-68
2022/02/25 08:01:40;;;;;;;;;1.00;1.00;;;;;9.03;53.25;102259.44;4932676;28;45776;-68
2022/02/25 08:04:07;;;;;;;;;2.25;2.25;;;;;9.01;53.47;102250.56;4924109;28;45545;-68
2022/02/25 08:06:33;;;;;;;;;3.25;1.00;;;;;9.06;53.23;102260.31;4934748;28;46515;-70
2022/02/25 08:08:58;;;;;;;;;2.00;1.00;;;;;9.07;53.45;102258.53;4925907;28;45687;-68
2022/02/25 08:11:23;;;;;;;;;1.00;1.00;;;;;9.06;53.19;102257.66;4939681;28;45421;-68
2022/02/25 08:13:49;;;;;;;;;4.25;2.00;;;;;9.15;53.57;102267.41;4931043;28;45499;-68
2022/02/25 08:16:14;;;;;;;;;1.00;1.00;;;;;9.09;53.45;102251.44;4942118;28;46215;-68
2022/02/25 08:18:40;;;;;;;;;3.00;1.00;;;;;9.17;53.32;102268.31;4943115;28;45465;-68
2022/02/25 08:21:05;;;;;;;;;3.50;1.00;;;;;9.20;53.23;102275.38;4930498;28;45300;-68
2022/02/25 08:23:30;;;;;;;;;1.00;1.00;;;;;9.15;53.61;102262.06;4930935;28;45267;-67
2022/02/25 08:25:56;;;;;;;;;1.00;0.50;;;;;9.23;53.63;102276.25;4940388;28;45413;-68
2022/02/25 08:28:21;;;;;;;;;1.00;1.00;;;;;9.29;53.63;102278.03;4942175;28;45428;-68
2022/02/25 08:30:47;;;;;;;;;1.00;1.00;;;;;9.26;53.11;102265.59;4938940;28;45310;-67
2022/02/25 08:33:13;;;;;;;;;2.00;1.25;;;;;9.26;53.36;102276.25;4933070;28;45411;-68
2022/02/25 08:35:39;;;;;;;;;0.75;0.75;;;;;9.27;53.44;102282.47;4938337;28;46062;-68
2022/02/25 08:38:06;;;;;;;;;3.00;1.00;;;;;9.34;53.41;102283.34;4933310;28;45450;-68
2022/02/25 08:40:32;;;;;;;;;3.00;2.00;;;;;9.38;53.37;102288.66;4941865;28;45310;-68
2022/02/25 08:42:58;;;;;;;;;1.25;1.25;;;;;9.39;52.97;102289.56;4923397;28;45532;-68
2022/02/25 08:45:23;;;;;;;;;1.75;1.75;;;;;9.37;53.42;102286.00;4921474;28;48499;-68
2022/02/25 08:47:49;;;;;;;;;4.00;1.00;;;;;9.38;53.29;102290.44;4939738;28;45417;-68
2022/02/25 08:50:17;;;;;;;;;1.75;0.25;;;;;9.38;53.11;102288.66;4942040;28;45541;-68
2022/02/25 08:52:45;;;;;;;;;1.75;1.00;;;;;9.43;53.30;102299.31;4922489;28;45455;-69
2022/02/25 08:55:11;;;;;;;;;1.00;1.00;;;;;9.44;53.57;102309.97;4921203;28;46016;-70
2022/02/25 08:57:37;;;;;;;;;1.75;1.75;;;;;9.44;53.25;102298.44;4940594;28;45393;-68
2022/02/25 09:00:12;;;;;;;;;0.50;0.50;;;;;9.49;53.24;102312.63;4941793;28;45460;-68
2022/02/25 09:02:38;;;;;;;;;4.75;1.50;;;;;9.49;52.89;102307.31;4941199;28;45351;-68
2022/02/25 09:05:04;;;;;;;;;4.00;1.00;;;;;9.56;53.37;102318.84;4934857;28;46246;-68
2022/02/25 09:07:30;;;;;;;;;2.00;1.00;;;;;9.59;53.50;102316.16;4922931;28;45581;-68
2022/02/25 09:09:55;;;;;;;;;3.75;1.75;;;;;9.61;53.08;102323.25;4930730;28;45274;-68
2022/02/25 09:12:21;;;;;;;;;1.00;1.00;;;;;9.62;53.21;102319.72;4936731;28;45654;-68
2022/02/25 09:14:46;;;;;;;;;2.25;1.50;;;;;9.63;53.71;102331.25;4942685;28;46966;-68
2022/02/25 09:17:12;;;;;;;;;1.00;1.00;;;;;9.64;53.44;102327.69;4938012;28;45366;-69
2022/02/25 09:19:39;;;;;;;;;4.00;2.00;;;;;9.68;53.38;102328.56;4929670;28;45513;-69
2022/02/25 09:22:06;;;;;;;;;1.50;1.00;;;;;9.71;53.11;102328.56;4936034;28;45330;-69
2022/02/25 09:24:32;;;;;;;;;2.50;2.00;;;;;9.70;53.41;102340.13;4936479;28;46952;-69
2022/02/25 09:26:58;;;;;;;;;2.75;1.00;;;;;9.69;53.33;102346.31;4934291;28;45697;-69
2022/02/25 09:29:23;;;;;;;;;2.25;1.00;;;;;9.71;53.36;102357.91;4937938;28;45556;-69
2022/02/25 09:31:49;;;;;;;;;3.25;2.50;;;;;9.72;53.75;102354.31;4940595;28;45259;-68
2022/02/25 09:34:14;;;;;;;;;1.00;1.00;;;;;9.78;53.88;102364.97;4937848;28;45889;-68
2022/02/25 09:36:41;;;;;;;;;1.00;0.75;;;;;9.83;53.48;102355.19;4930373;28;45587;-69
2022/02/25 09:39:07;;;;;;;;;2.75;1.00;;;;;9.88;53.23;102360.50;4932414;28;45611;-66
2022/02/25 09:41:33;;;;;;;;;5.00;2.00;;;;;9.87;53.56;102356.94;4938186;28;45562;-66
2022/02/25 09:43:58;;;;;;;;;4.00;2.00;;;;;9.93;53.33;102369.38;4932085;28;45464;-67
2022/02/25 09:46:24;;;;;;;;;2.50;1.25;;;;;9.95;53.25;102368.47;4937096;28;45541;-67
2022/02/25 09:48:50;;;;;;;;;2.00;2.00;;;;;10.01;53.37;102378.25;4925444;28;45740;-66
2022/02/25 09:51:15;;;;;;;;;3.00;1.00;;;;;10.01;53.36;102364.91;4937662;28;46974;-68
2022/02/25 09:53:41;;;;;;;;;3.50;2.00;;;;;10.03;52.90;102373.78;4931802;28;45390;-68
2022/02/25 09:56:06;;;;;;;;;3.00;1.75;;;;;10.10;52.93;102377.31;4921601;28;45362;-68
2022/02/25 09:58:32;;;;;;;;;4.00;2.00;;;;;10.10;53.27;102379.97;4923424;28;45308;-67
2022/02/25 10:00:57;;;;;;;;;3.00;1.00;;;;;10.13;53.61;102386.19;4939629;28;45271;-67
2022/02/25 10:03:25;;;;;;;;;2.75;2.00;;;;;10.20;53.24;102387.03;4937111;28;45592;-68
2022/02/25 10:05:51;;;;;;;;;3.00;1.50;;;;;10.23;52.83;102387.03;4936096;28;45334;-68
2022/02/25 10:08:19;;;;;;;;;2.00;1.00;;;;;10.28;53.36;102392.34;4936231;28;45511;-70
2022/02/25 10:10:44;;;;;;;;;2.00;1.50;;;;;10.31;53.72;102398.56;4930107;28;45480;-70
2022/02/25 10:13:12;;;;;;;;;2.00;2.00;;;;;10.36;53.22;102398.59;4937681;28;45497;-70
2022/02/25 10:15:39;;;;;;;;;1.25;1.00;;;;;10.35;52.77;102403.00;4928562;28;45246;-70
2022/02/25 10:18:16;;;;;;;;;3.00;0.00;;;;;10.40;52.62;102404.78;4930998;28;45248;-70
2022/02/25 10:20:44;;;;;;;;;2.00;1.25;;;;;10.40;53.69;102407.47;4926952;28;45487;-70
2022/02/25 10:23:22;;;;;;;;;1.00;1.00;;;;;10.44;53.05;102409.19;4957318;28;48248;-69
2022/02/25 10:25:48;;;;;;;;;1.00;1.00;;;;;10.37;53.15;102401.25;4936636;28;45329;-70
2022/02/25 10:28:14;;;;;;;;;2.50;2.00;;;;;10.41;53.51;102414.56;4938118;28;45385;-70
2022/02/25 10:30:39;;;;;;;;;2.75;1.25;;;;;10.42;53.48;102409.22;4921512;28;45192;-70
2022/02/25 10:33:06;;;;;;;;;0.25;0.00;;;;;10.44;53.19;102403.88;4947967;28;47471;-68
2022/02/25 10:35:37;;;;;;;;;2.00;1.00;;;;;10.48;53.52;102419.88;4938314;28;45783;-68
2022/02/25 10:38:11;;;;;;;;;1.75;1.75;;;;;10.48;53.29;102419.00;4926813;28;45353;-68
2022/02/25 10:40:41;;;;;;;;;4.50;2.00;;;;;10.55;53.19;102420.72;4931005;28;45547;-68
2022/02/25 10:43:26;;;;;;;;;1.50;1.50;;;;;10.60;53.87;102416.25;4933603;28;46551;-68
2022/02/25 10:46:11;;;;;;;;;2.00;1.00;;;;;10.65;53.73;102416.22;4935826;28;45504;-68
2022/02/25 10:48:37;;;;;;;;;2.00;1.00;;;;;10.67;53.31;102412.63;4929679;28;45504;-68
2022/02/25 10:51:07;;;;;;;;;1.75;1.00;;;;;10.72;52.76;102415.28;4931079;28;45602;-68
2022/02/25 10:53:32;;;;;;;;;2.00;1.00;;;;;10.74;52.51;102418.81;4932057;28;46281;-68
2022/02/25 10:56:11;;;;;;;;;4.00;2.00;;;;;10.76;53.26;102417.06;4927205;28;45746;-67
2022/02/25 10:58:49;;;;;;;;;4.00;1.00;;;;;10.80;52.97;102415.25;4932666;28;45608;-68
2022/02/25 11:01:16;;;;;;;;;3.50;2.50;;;;;10.83;52.98;102421.44;4940115;28;45706;-67
2022/02/25 11:03:57;;;;;;;;;1.25;1.25;;;;;10.86;52.76;102417.84;4930527;28;46407;-68
2022/02/25 11:06:24;;;;;;;;;3.25;1.25;;;;;10.86;52.58;102425.88;4924936;28;45433;-68
2022/02/25 11:08:49;;;;;;;;;1.50;1.50;;;;;10.87;53.06;102416.97;4936100;28;45400;-67
2022/02/25 11:11:16;;;;;;;;;5.00;1.00;;;;;10.94;52.92;102421.34;4935664;28;45360;-68
2022/02/25 11:13:43;;;;;;;;;4.75;2.00;;;;;10.99;52.68;102432.91;4932766;28;47037;-68
2022/02/25 11:16:09;;;;;;;;;3.50;2.00;;;;;11.01;52.85;102422.19;4934691;28;45548;-68
2022/02/25 11:18:34;;;;;;;;;3.00;1.00;;;;;11.05;52.90;102422.19;4941703;28;45440;-68
2022/02/25 11:21:00;;;;;;;;;3.25;2.75;;;;;11.06;52.88;102434.66;4933881;28;45563;-68
2022/02/25 11:23:27;;;;;;;;;1.75;1.75;;;;;11.11;52.63;102438.19;4944229;28;47372;-67
2022/02/25 11:25:52;;;;;;;;;2.75;1.00;;;;;11.10;52.39;102427.50;4942991;28;45519;-68
2022/02/25 11:28:22;;;;;;;;;2.00;2.00;;;;;11.09;52.03;102421.28;4933535;28;45689;-68
2022/02/25 11:31:06;;;;;;;;;6.50;2.00;;;;;11.16;52.20;102435.47;4935868;28;45516;-67
2022/02/25 11:33:32;;;;;;;;;3.00;1.25;;;;;11.19;52.07;102431.88;4936666;28;45555;-68